Time;durP1;ratioP1;P1;durP2;ratioP2;P2;SDS_P1;SDS_P2;PMS_P1;PMS_P2;Temp;Humidity;BMP_temperature;BMP_pressure;BME280_temperature;BME280_humidity;BME280_pressure;Samples;Min_cycle;Max_cycle;Signal;HPM_P1;HPM_P2
2023/03/30 00:00:41;;;;;;;14.52;6.97;;;;;;;9.74;44.04;94925.66;5035626;28;20277;-73
2023/03/30 00:03:07;;;;;;;7.50;2.53;;;;;;;8.52;45.41;94929.47;5037341;28;20385;-73
2023/03/30 00:05:33;;;;;;;8.50;2.70;;;;;;;9.67;43.98;94930.91;5018532;28;20049;-72
2023/03/30 00:07:59;;;;;;;8.43;2.58;;;;;;;9.85;43.32;94932.28;5020047;28;20087;-72
2023/03/30 00:10:25;;;;;;;9.02;2.63;;;;;;;9.38;44.20;94929.97;5038669;28;20481;-73
2023/03/30 00:12:51;;;;;;;8.07;3.00;;;;;;;9.17;44.40;94925.44;5035543;28;20179;-72
2023/03/30 00:15:18;;;;;;;6.25;2.58;;;;;;;9.13;44.92;94924.16;5037089;28;20036;-72
2023/03/30 00:17:44;;;;;;;7.15;2.70;;;;;;;8.84;45.05;94925.81;5018718;28;20507;-72
2023/03/30 00:20:10;;;;;;;8.90;3.53;;;;;;;8.78;45.05;94917.56;5017596;28;20859;-73
2023/03/30 00:22:40;;;;;;;6.78;2.60;;;;;;;9.67;43.76;94920.28;5033320;28;20028;-73
2023/03/30 00:25:10;;;;;;;3.92;2.15;;;;;;;9.78;43.19;94926.91;5035154;28;20045;-73
2023/03/30 00:27:36;;;;;;;7.25;2.60;;;;;;;9.42;43.74;94919.81;5035588;28;20037;-73
2023/03/30 00:30:03;;;;;;;7.03;2.50;;;;;;;9.38;43.65;94918.53;5019330;28;20381;-72
2023/03/30 00:32:28;;;;;;;5.20;2.25;;;;;;;9.19;44.40;94918.13;5035555;28;20033;-73
2023/03/30 00:34:54;;;;;;;7.93;2.58;;;;;;;9.68;43.24;94926.41;5035034;28;20028;-73
2023/03/30 00:37:19;;;;;;;7.85;2.60;;;;;;;9.16;43.22;94935.25;5034807;28;20036;-73
2023/03/30 00:39:45;;;;;;;9.25;2.40;;;;;;;9.08;44.20;94928.19;5035204;28;20036;-72
2023/03/30 00:42:15;;;;;;;6.70;2.25;;;;;;;9.01;44.34;94921.97;5035037;28;20076;-73
2023/03/30 00:45:17;;;;;;;5.60;2.47;;;;;;;9.00;44.30;94919.50;5015199;28;20115;-72
2023/03/30 00:47:47;;;;;;;8.82;2.42;;;;;;;8.17;46.51;94916.72;5030484;28;20032;-73
2023/03/30 00:50:12;;;;;;;8.40;2.60;;;;;;;9.23;44.04;94900.81;5035637;28;20423;-73
2023/03/30 00:52:37;;;;;;;6.22;2.45;;;;;;;9.43;43.57;94900.19;5019318;28;20040;-72
2023/03/30 00:55:04;;;;;;;5.70;2.20;;;;;;;9.70;42.56;94903.94;5017972;28;20344;-72
2023/03/30 00:57:31;;;;;;;6.72;2.30;;;;;;;9.71;42.78;94894.13;5019572;28;20098;-72
2023/03/30 00:59:56;;;;;;;8.73;2.30;;;;;;;9.87;42.28;94886.91;5035205;28;20120;-72
2023/03/30 01:02:22;;;;;;;8.52;2.50;;;;;;;9.95;42.58;94887.59;5031592;28;20093;-73
2023/03/30 01:04:49;;;;;;;8.98;2.40;;;;;;;9.89;42.58;94884.88;5046239;22;20049;-78
2023/03/30 01:07:15;;;;;;;7.80;2.38;;;;;;;10.01;42.00;94886.00;5001432;28;20033;-78
2023/03/30 01:09:40;;;;;;;10.43;2.70;;;;;;;10.10;41.58;94882.22;5001278;28;20063;-78
2023/03/30 01:12:06;;;;;;;7.53;2.50;;;;;;;10.11;41.98;94877.72;5004008;28;20087;-78
2023/03/30 01:14:31;;;;;;;7.57;3.00;;;;;;;10.31;41.37;94877.88;5001026;28;20481;-78
2023/03/30 01:17:31;;;;;;;9.07;2.75;;;;;;;9.89;42.27;94885.69;5020169;28;20434;-79
2023/03/30 01:20:21;;;;;;;8.55;2.88;;;;;;;10.28;41.26;94885.41;5015251;28;20558;-78
2023/03/30 01:23:04;;;;;;;5.13;2.13;;;;;;;10.47;41.05;94887.38;5034450;28;20409;-78
2023/03/30 01:25:55;;;;;;;7.45;2.45;;;;;;;10.51;41.13;94887.81;5024221;28;20029;-78
2023/03/30 01:28:40;;;;;;;7.80;3.30;;;;;;;10.38;41.51;94887.72;5021088;28;20084;-78
2023/03/30 01:31:30;;;;;;;9.43;3.70;;;;;;;10.40;41.40;94886.50;5020067;28;20219;-79
2023/03/30 01:33:56;;;;;;;6.80;2.20;;;;;;;10.03;41.77;94893.78;5019138;28;20069;-79
2023/03/30 01:36:44;;;;;;;5.13;2.35;;;;;;;10.02;42.08;94885.00;5020134;28;20124;-78
2023/03/30 01:39:28;;;;;;;10.63;2.63;;;;;;;10.27;41.95;94879.25;5004816;28;20033;-78
2023/03/30 01:42:17;;;;;;;10.85;3.20;;;;;;;10.15;42.07;94878.16;5034596;28;20831;-78
2023/03/30 01:44:48;;;;;;;8.18;4.63;;;;;;;10.13;42.02;94874.88;5016335;28;20034;-78
2023/03/30 01:47:34;;;;;;;7.35;2.47;;;;;;;10.48;41.09;94873.03;5019710;28;20033;-79
2023/03/30 01:50:01;;;;;;;4.22;2.20;;;;;;;10.83;40.17;94890.03;5008028;28;20083;-79
2023/03/30 01:52:30;;;;;;;6.07;2.30;;;;;;;10.54;40.98;94908.69;5028109;28;20051;-79
2023/03/30 01:55:35;;;;;;;13.15;2.92;;;;;;;10.45;41.21;94915.22;4991783;28;20037;-78
2023/03/30 01:58:05;;;;;;;10.60;3.28;;;;;;;10.56;41.29;94921.81;5025078;28;20083;-78
2023/03/30 02:00:30;;;;;;;10.27;2.50;;;;;;;9.29;43.94;94929.25;5006692;28;20045;-78
2023/03/30 02:02:59;;;;;;;4.43;2.30;;;;;;;8.46;47.04;94951.41;5000010;28;20125;-78
2023/03/30 02:05:26;;;;;;;10.35;2.97;;;;;;;8.31;49.55;94938.16;4981250;28;20196;-80
2023/03/30 02:08:00;;;;;;;6.93;2.47;;;;;;;7.69;51.85;94955.84;4998286;28;20735;-82
2023/03/30 02:10:27;;;;;;;9.10;2.65;;;;;;;7.72;53.05;94936.94;5015370;28;20078;-81
2023/03/30 02:12:53;;;;;;;8.77;2.70;;;;;;;7.95;52.92;94915.75;4998063;28;20095;-81
2023/03/30 02:15:19;;;;;;;10.40;2.92;;;;;;;8.16;51.37;94903.66;5015737;28;20132;-81
2023/03/30 02:17:46;;;;;;;8.40;2.83;;;;;;;8.17;52.40;94895.50;4999327;28;20052;-81
2023/03/30 02:20:12;;;;;;;10.25;2.75;;;;;;;8.78;51.17;94912.25;5014721;28;20253;-81
2023/03/30 02:22:37;;;;;;;7.85;3.30;;;;;;;8.71;50.86;94914.03;4997996;28;20033;-81
2023/03/30 02:25:04;;;;;;;7.13;2.50;;;;;;;9.07;49.59;94915.94;4998402;28;20457;-81
2023/03/30 02:27:30;;;;;;;9.45;4.10;;;;;;;9.13;49.72;94897.59;4982250;28;20033;-81
2023/03/30 02:29:56;;;;;;;11.02;2.65;;;;;;;9.11;49.94;94881.06;4982480;28;20073;-82
2023/03/30 02:32:26;;;;;;;8.32;3.17;;;;;;;9.33;49.20;94887.22;5016076;28;20513;-81
2023/03/30 02:35:30;;;;;;;9.80;2.72;;;;;;;9.46;48.47;94881.22;4999447;28;20041;-81
2023/03/30 02:38:18;;;;;;;28.48;13.52;;;;;;;9.53;48.51;94873.31;4996456;28;20152;-81
2023/03/30 02:40:58;;;;;;;11.63;5.13;;;;;;;9.25;48.28;94852.81;5002869;28;20051;-81
2023/03/30 02:43:36;;;;;;;7.82;2.88;;;;;;;9.53;48.82;94862.69;5015939;28;20041;-81
2023/03/30 02:46:23;;;;;;;12.43;2.80;;;;;;;9.82;47.25;94848.44;5014490;28;20052;-81
2023/03/30 02:49:15;;;;;;;8.25;2.53;;;;;;;10.23;46.63;94870.84;5016452;28;20046;-81
2023/03/30 02:51:44;;;;;;;9.20;2.83;;;;;;;10.28;46.46;94849.00;5007294;28;20037;-81
2023/03/30 02:54:24;;;;;;;7.82;3.83;;;;;;;10.27;46.55;94860.63;5000006;28;20052;-81
2023/03/30 02:57:05;;;;;;;6.55;2.30;;;;;;;9.93;48.45;94859.56;5016980;28;20156;-82
2023/03/30 02:59:35;;;;;;;8.23;2.60;;;;;;;9.52;48.07;94875.13;5017383;28;20647;-82
2023/03/30 03:02:14;;;;;;;10.57;2.78;;;;;;;9.27;49.35;94875.50;4998175;28;20788;-81
2023/03/30 03:04:42;;;;;;;7.57;2.70;;;;;;;8.88;50.69;94882.78;4999859;28;20049;-81
2023/03/30 03:07:09;;;;;;;5.95;2.50;;;;;;;8.31;52.31;94871.84;5014829;28;20029;-81
2023/03/30 03:09:35;;;;;;;8.20;2.60;;;;;;;8.34;52.44;94862.69;4999249;28;20037;-81
2023/03/30 03:12:01;;;;;;;5.80;2.60;;;;;;;8.84;51.04;94836.38;5015441;28;20760;-81
2023/03/30 03:14:26;;;;;;;9.68;2.85;;;;;;;8.55;51.43;94828.31;5016608;28;20040;-81
2023/03/30 03:16:53;;;;;;;7.95;2.90;;;;;;;8.69;52.36;94808.06;4998518;28;20033;-80
2023/03/30 03:19:18;;;;;;;8.70;2.83;;;;;;;9.00;51.44;94787.59;5016072;28;20148;-80
2023/03/30 03:21:44;;;;;;;7.45;2.95;;;;;;;8.85;51.54;94800.91;5015666;28;20200;-80
2023/03/30 03:24:12;;;;;;;6.78;3.22;;;;;;;8.68;53.28;94826.81;5017075;28;20033;-81
2023/03/30 03:26:38;;;;;;;8.73;2.40;;;;;;;8.87;52.12;94808.66;4987488;28;20111;-80
2023/03/30 03:29:04;;;;;;;10.38;2.58;;;;;;;8.89;52.53;94796.03;5002585;28;20552;-80
2023/03/30 03:31:29;;;;;;;8.27;2.85;;;;;;;9.45;50.59;94782.09;5019209;28;20033;-80
2023/03/30 03:33:55;;;;;;;9.57;2.55;;;;;;;9.66;50.13;94774.28;5020566;28;20108;-80
2023/03/30 03:36:21;;;;;;;7.78;2.58;;;;;;;9.38;50.97;94773.25;5002543;28;20854;-80
2023/03/30 03:38:46;;;;;;;6.18;2.42;;;;;;;9.02;51.94;94774.13;5018505;28;20029;-80
2023/03/30 03:41:12;;;;;;;7.13;2.83;;;;;;;8.98;52.45;94778.19;5001839;28;20056;-80
2023/03/30 03:43:37;;;;;;;8.20;3.35;;;;;;;9.48;51.21;94767.59;5018294;28;20040;-80
2023/03/30 03:46:03;;;;;;;7.95;2.80;;;;;;;9.79;50.46;94765.59;5035759;28;20045;-80
2023/03/30 03:48:28;;;;;;;5.55;2.35;;;;;;;9.93;50.42;94762.00;5018497;28;20088;-80
2023/03/30 03:50:55;;;;;;;7.03;2.67;;;;;;;9.48;51.08;94759.63;5018033;28;20037;-80
2023/03/30 03:53:21;;;;;;;8.73;3.13;;;;;;;9.86;49.53;94753.16;5017673;28;20091;-80
2023/03/30 03:55:47;;;;;;;8.73;2.78;;;;;;;9.45;51.04;94750.22;5001640;28;20552;-79
2023/03/30 03:58:12;;;;;;;6.05;2.47;;;;;;;9.66;51.05;94759.16;5002183;28;20030;-80
2023/03/30 04:00:38;;;;;;;7.28;2.65;;;;;;;10.12;49.99;94750.88;5001475;28;20056;-80
2023/03/30 04:03:04;;;;;;;8.10;2.40;;;;;;;9.73;51.23;94748.59;5002339;28;20264;-80
2023/03/30 04:05:29;;;;;;;9.55;2.58;;;;;;;10.09;49.97;94742.28;5001603;28;20037;-80
2023/03/30 04:07:55;;;;;;;7.38;2.63;;;;;;;9.57;51.63;94745.19;5017492;28;20059;-80
2023/03/30 04:10:21;;;;;;;6.97;2.92;;;;;;;9.64;50.75;94739.94;5020194;28;20037;-80
2023/03/30 04:12:46;;;;;;;8.80;2.65;;;;;;;9.78;50.58;94750.63;5018081;28;20052;-80
2023/03/30 04:15:12;;;;;;;7.00;2.70;;;;;;;9.70;51.28;94743.66;5001187;28;20068;-80
2023/03/30 04:17:37;;;;;;;6.55;2.63;;;;;;;9.82;50.81;94736.78;5014650;28;20879;-80
2023/03/30 04:20:04;;;;;;;6.28;2.60;;;;;;;9.50;51.26;94736.34;5017926;28;20534;-80
2023/03/30 04:22:32;;;;;;;6.45;2.53;;;;;;;9.62;51.18;94733.16;5000380;28;20037;-80
2023/03/30 04:25:03;;;;;;;6.90;2.73;;;;;;;9.64;50.82;94718.66;5017594;28;20041;-80
2023/03/30 04:27:28;;;;;;;6.32;2.40;;;;;;;8.88;52.77;94725.38;5017558;28;20389;-80
2023/03/30 04:29:57;;;;;;;9.18;2.60;;;;;;;8.66;53.05;94725.34;5001656;28;20029;-80
2023/03/30 04:32:25;;;;;;;6.93;2.60;;;;;;;8.72;53.45;94716.63;5015130;28;20048;-79
2023/03/30 04:34:53;;;;;;;;;;;;;;;8.84;52.59;94708.97;5017879;28;20033;-80
2023/03/30 04:37:29;;;;;;;6.72;2.40;;;;;;;7.99;54.54;94707.63;5018824;28;20023;-79
2023/03/30 04:39:56;;;;;;;6.57;2.22;;;;;;;8.35;54.16;94706.03;5016940;28;20044;-78
2023/03/30 04:42:28;;;;;;;8.70;2.45;;;;;;;7.62;55.95;94712.00;5016963;28;20061;-78
2023/03/30 04:44:55;;;;;;;9.35;2.22;;;;;;;8.15;55.00;94695.19;5000997;28;20049;-78
2023/03/30 04:47:20;;;;;;;7.05;2.47;;;;;;;8.00;55.55;94701.34;4999567;28;20029;-78
2023/03/30 04:49:45;;;;;;;8.43;2.55;;;;;;;8.56;53.77;94710.56;5018267;28;20034;-78
2023/03/30 04:52:11;;;;;;;7.25;2.63;;;;;;;8.88;52.87;94710.25;4999143;28;20561;-78
2023/03/30 04:54:36;;;;;;;10.52;2.85;;;;;;;8.35;54.39;94703.38;5014902;28;20091;-78
2023/03/30 04:57:02;;;;;;;12.75;2.85;;;;;;;8.69;53.34;94717.00;5015930;28;20103;-78
2023/03/30 04:59:27;;;;;;;10.63;2.92;;;;;;;8.81;52.85;94709.38;5016441;28;20037;-78
2023/03/30 05:01:53;;;;;;;7.55;2.58;;;;;;;8.14;54.86;94709.44;5015165;28;20474;-78
2023/03/30 05:04:18;;;;;;;6.78;2.65;;;;;;;9.02;52.27;94711.25;5016454;28;20060;-78
2023/03/30 05:06:43;;;;;;;8.52;2.75;;;;;;;8.88;53.53;94698.81;4999312;28;21619;-78
2023/03/30 05:09:09;;;;;;;6.80;2.55;;;;;;;8.59;54.29;94708.53;5015300;28;20046;-78
2023/03/30 05:11:34;;;;;;;6.65;3.20;;;;;;;9.61;49.80;94689.81;4999041;28;20385;-78
2023/03/30 05:14:00;;;;;;;4.22;2.40;;;;;;;9.14;52.25;94700.09;5031688;28;20064;-78
2023/03/30 05:16:25;;;;;;;8.05;2.80;;;;;;;9.55;50.67;94694.06;5015330;28;20044;-78
2023/03/30 05:18:51;;;;;;;11.68;4.50;;;;;;;9.32;51.52;94695.13;4998832;28;20037;-78
2023/03/30 05:21:16;;;;;;;8.20;2.70;;;;;;;9.69;51.04;94702.16;5016395;28;20204;-78
2023/03/30 05:23:42;;;;;;;8.32;4.05;;;;;;;9.79;48.43;94689.31;5015955;28;20481;-78
2023/03/30 05:26:07;;;;;;;9.35;3.05;;;;;;;10.26;48.86;94698.59;5015801;28;20029;-78
2023/03/30 05:28:33;;;;;;;8.15;2.90;;;;;;;10.07;49.32;94707.06;4999263;28;20056;-78
2023/03/30 05:30:58;;;;;;;7.90;3.25;;;;;;;10.01;49.43;94702.53;5015286;28;20226;-78
2023/03/30 05:33:24;;;;;;;8.55;2.95;;;;;;;10.13;49.20;94696.69;4999129;28;20045;-78
2023/03/30 05:35:50;;;;;;;6.75;2.72;;;;;;;10.08;48.90;94691.94;5014952;28;20045;-78
2023/03/30 05:38:16;;;;;;;10.00;3.17;;;;;;;10.02;49.61;94692.69;4998844;28;20056;-78
2023/03/30 05:40:41;;;;;;;5.63;2.90;;;;;;;9.99;48.41;94693.91;5013398;28;20415;-78
2023/03/30 05:43:06;;;;;;;9.38;2.78;;;;;;;9.36;50.58;94698.25;4994357;28;20465;-78
2023/03/30 05:45:32;;;;;;;8.80;2.85;;;;;;;10.03;49.61;94689.84;5016845;28;20033;-78
2023/03/30 05:47:57;;;;;;;7.93;2.58;;;;;;;10.10;49.13;94705.88;4996421;28;20040;-78
2023/03/30 05:50:23;;;;;;;8.23;3.15;;;;;;;10.22;48.36;94696.31;4998501;28;20041;-78
2023/03/30 05:52:48;;;;;;;8.15;3.20;;;;;;;10.02;48.98;94698.84;4998529;28;20403;-78
2023/03/30 05:55:14;;;;;;;7.68;2.60;;;;;;;10.09;49.32;94693.56;4998294;28;20102;-78
2023/03/30 05:57:40;;;;;;;8.18;2.72;;;;;;;8.71;53.33;94711.50;4997979;28;20050;-78
2023/03/30 06:00:06;;;;;;;9.40;2.80;;;;;;;8.98;52.33;94707.34;5014792;28;20037;-78
2023/03/30 06:02:32;;;;;;;9.23;3.40;;;;;;;10.13;49.21;94705.47;5017176;28;20124;-78
2023/03/30 06:04:57;;;;;;;7.53;2.60;;;;;;;10.24;49.05;94709.41;5016122;28;20044;-78
2023/03/30 06:07:23;;;;;;;10.77;3.00;;;;;;;9.67;49.96;94709.47;4996724;28;20363;-63
2023/03/30 06:09:49;;;;;;;6.72;2.78;;;;;;;9.65;50.42;94727.47;5014097;28;20081;-63
2023/03/30 06:12:14;;;;;;;13.52;3.10;;;;;;;9.98;49.56;94724.19;5012250;28;20033;-63
2023/03/30 06:14:40;;;;;;;9.63;2.90;;;;;;;10.12;49.31;94724.28;5016772;28;20037;-63
2023/03/30 06:17:06;;;;;;;9.10;2.75;;;;;;;9.69;49.87;94726.06;5011424;28;20402;-63
2023/03/30 06:19:31;;;;;;;10.50;2.90;;;;;;;7.74;55.40;94720.31;5011549;28;20427;-63
2023/03/30 06:21:57;;;;;;;8.77;2.85;;;;;;;8.84;52.19;94738.19;5015285;28;20060;-63
2023/03/30 06:24:23;;;;;;;8.65;2.75;;;;;;;8.56;52.99;94729.13;5011219;28;20037;-63
2023/03/30 06:26:48;;;;;;;7.95;2.70;;;;;;;9.82;49.88;94710.19;5007928;28;20041;-63
2023/03/30 06:29:13;;;;;;;10.52;4.18;;;;;;;10.10;47.82;94706.69;5016186;28;20041;-63
2023/03/30 06:31:39;;;;;;;11.25;3.00;;;;;;;8.61;52.20;94712.66;5014847;28;20080;-63
2023/03/30 06:34:04;;;;;;;9.52;2.88;;;;;;;8.59;52.86;94708.53;5016048;28;20895;-63
2023/03/30 06:36:30;;;;;;;8.95;2.75;;;;;;;9.16;51.10;94706.03;5016244;28;20049;-63
2023/03/30 06:38:55;;;;;;;9.38;4.18;;;;;;;9.60;49.96;94706.78;5013046;28;20173;-63
2023/03/30 06:41:20;;;;;;;8.50;2.72;;;;;;;8.61;52.83;94715.31;5010164;28;21985;-63
2023/03/30 06:43:46;;;;;;;8.77;2.65;;;;;;;8.10;54.26;94710.81;5012338;28;20062;-63
2023/03/30 06:46:12;;;;;;;13.35;3.17;;;;;;;7.61;55.98;94723.56;5000464;28;20279;-63
2023/03/30 06:48:38;;;;;;;10.93;4.18;;;;;;;8.72;52.93;94716.63;5013061;28;20045;-63
2023/03/30 06:51:05;;;;;;;11.38;4.60;;;;;;;9.46;51.03;94717.31;5008034;28;20417;-63
2023/03/30 06:53:31;;;;;;;8.43;2.80;;;;;;;8.97;51.87;94723.44;5012422;28;20041;-63
2023/03/30 06:55:57;;;;;;;6.90;2.45;;;;;;;8.37;54.33;94746.44;5011828;28;20389;-63
2023/03/30 06:58:23;;;;;;;9.35;2.80;;;;;;;7.65;56.94;94730.19;5015144;28;20074;-63
2023/03/30 07:00:48;;;;;;;9.82;2.80;;;;;;;7.52;57.62;94738.75;5017263;28;20038;-63
2023/03/30 07:03:15;;;;;;;6.57;2.90;;;;;;;7.34;58.22;94753.13;5017011;28;20059;-63
2023/03/30 07:05:41;;;;;;;6.95;2.55;;;;;;;7.00;60.55;94747.28;5019189;28;20444;-63
2023/03/30 07:08:07;;;;;;;9.90;2.75;;;;;;;6.24;62.55;94743.41;5016045;28;20049;-63
2023/03/30 07:10:32;;;;;;;8.07;2.90;;;;;;;6.77;61.75;94749.94;5019719;28;20041;-62
2023/03/30 07:12:58;;;;;;;8.68;3.38;;;;;;;5.81;64.63;94756.09;5018583;28;20041;-63
2023/03/30 07:15:23;;;;;;;9.38;2.53;;;;;;;6.31;63.79;94747.97;5018089;28;20037;-63
2023/03/30 07:17:49;;;;;;;10.15;3.40;;;;;;;5.90;65.16;94763.00;5018205;28;20041;-62
2023/03/30 07:20:14;;;;;;;11.32;2.78;;;;;;;6.50;63.37;94746.78;5016101;28;20033;-62
2023/03/30 07:22:41;;;;;;;7.43;2.65;;;;;;;6.65;63.30;94744.22;5018143;28;20398;-63
2023/03/30 07:25:07;;;;;;;12.15;2.92;;;;;;;6.97;61.71;94747.63;5011020;28;20227;-63
2023/03/30 07:27:35;;;;;;;12.52;4.13;;;;;;;6.28;64.29;94754.44;5014075;28;20025;-63
2023/03/30 07:30:00;;;;;;;12.10;2.85;;;;;;;6.27;64.81;94749.31;5019661;28;20448;-62
2023/03/30 07:32:26;;;;;;;9.95;3.97;;;;;;;6.15;64.71;94741.78;5017199;28;20080;-63
2023/03/30 07:34:51;;;;;;;7.60;2.85;;;;;;;6.45;63.76;94738.50;5018027;28;20041;-63
2023/03/30 07:37:19;;;;;;;9.15;2.85;;;;;;;6.25;64.81;94744.22;5014594;28;20119;-63
2023/03/30 07:39:45;;;;;;;9.98;2.83;;;;;;;6.50;64.04;94747.59;5015604;28;20045;-63
2023/03/30 07:42:10;;;;;;;9.13;3.53;;;;;;;6.98;62.59;94744.00;5017343;28;20048;-63
2023/03/30 07:44:35;;;;;;;9.07;4.43;;;;;;;7.22;62.02;94723.63;5018559;28;20458;-63
2023/03/30 07:47:05;;;;;;;8.60;3.05;;;;;;;7.43;60.80;94738.00;5019051;28;20037;-63
2023/03/30 07:49:30;;;;;;;8.02;3.10;;;;;;;7.07;62.05;94736.00;5017411;28;20067;-63
2023/03/30 07:51:56;;;;;;;4.40;2.47;;;;;;;7.89;59.68;94738.91;5017947;28;20564;-63
2023/03/30 07:54:22;;;;;;;9.13;2.78;;;;;;;7.66;59.85;94748.53;5017617;28;20055;-63
2023/03/30 07:56:51;;;;;;;7.28;3.08;;;;;;;7.42;60.50;94749.59;5018818;28;20037;-63
2023/03/30 07:59:18;;;;;;;10.43;3.20;;;;;;;7.93;59.77;94753.44;5017720;28;20534;-63
2023/03/30 08:01:44;;;;;;;9.43;2.85;;;;;;;7.62;60.52;94744.59;5017549;28;20037;-63
2023/03/30 08:04:09;;;;;;;9.68;2.92;;;;;;;7.70;60.52;94743.69;5018022;28;20460;-63
2023/03/30 08:06:38;;;;;;;7.82;2.90;;;;;;;7.86;59.09;94750.66;5018071;28;20036;-63
2023/03/30 08:09:04;;;;;;;4.82;2.30;;;;;;;8.90;57.05;94753.38;5016649;28;20053;-63
2023/03/30 08:11:30;;;;;;;9.80;3.10;;;;;;;8.10;58.59;94742.66;5017575;28;20654;-63
2023/03/30 08:13:56;;;;;;;6.72;3.00;;;;;;;9.05;56.04;94733.94;5019100;28;20597;-63
2023/03/30 08:16:21;;;;;;;9.27;2.85;;;;;;;8.42;57.61;94748.53;5016204;28;20519;-63
2023/03/30 08:18:47;;;;;;;7.10;2.45;;;;;;;8.77;56.81;94743.44;5015847;28;20497;-62
2023/03/30 08:21:12;;;;;;;9.35;3.28;;;;;;;8.64;56.68;94748.59;5017923;28;20045;-63
2023/03/30 08:23:37;;;;;;;8.95;2.72;;;;;;;8.14;57.94;94754.53;5016669;28;20045;-63
2023/03/30 08:26:03;;;;;;;7.53;3.22;;;;;;;9.08;55.53;94750.28;5018687;28;20038;-63
2023/03/30 08:28:28;;;;;;;9.40;2.95;;;;;;;9.01;54.95;94754.72;5017111;28;20653;-63
2023/03/30 08:30:55;;;;;;;9.30;3.42;;;;;;;7.62;60.14;94754.38;5016929;28;20564;-62
2023/03/30 08:33:22;;;;;;;8.15;2.90;;;;;;;8.26;58.38;94747.75;5017280;28;20103;-63
2023/03/30 08:35:48;;;;;;;7.93;2.75;;;;;;;9.33;55.10;94749.94;5016497;28;20037;-64
2023/03/30 08:38:16;;;;;;;13.82;5.40;;;;;;;10.05;53.34;94733.06;5016404;28;20035;-63
2023/03/30 08:40:48;;;;;;;7.55;2.63;;;;;;;9.83;53.02;94743.72;5016034;28;20454;-65
2023/03/30 08:43:19;;;;;;;9.07;3.28;;;;;;;9.51;53.17;94756.59;5014845;28;20025;-64
2023/03/30 08:45:45;;;;;;;8.23;3.10;;;;;;;8.88;54.51;94750.06;5015746;28;20502;-64
2023/03/30 08:48:21;;;;;;;8.80;3.15;;;;;;;9.13;54.79;94755.06;5016554;28;20094;-64
2023/03/30 08:50:58;;;;;;;9.93;3.17;;;;;;;8.95;54.93;94752.84;5013642;28;20108;-64
2023/03/30 08:53:23;;;;;;;9.90;3.28;;;;;;;9.36;53.87;94764.66;5010791;28;20116;-64
2023/03/30 08:55:51;;;;;;;7.47;2.67;;;;;;;9.77;52.89;94755.16;5017290;28;20146;-64
2023/03/30 08:58:19;;;;;;;13.82;6.43;;;;;;;10.32;51.71;94751.81;4995943;28;20037;-64
2023/03/30 09:00:51;;;;;;;5.82;2.65;;;;;;;9.48;53.05;94756.97;5011019;28;20524;-64
2023/03/30 09:03:29;;;;;;;7.03;2.83;;;;;;;10.24;51.75;94757.31;5016778;28;20573;-64
2023/03/30 09:05:57;;;;;;;10.23;3.25;;;;;;;9.64;52.88;94750.56;4999328;28;20042;-64
2023/03/30 09:08:26;;;;;;;12.43;5.28;;;;;;;9.68;52.88;94756.28;5014359;28;20080;-64
2023/03/30 09:11:03;;;;;;;5.93;2.50;;;;;;;9.32;54.66;94758.88;5013231;28;20029;-64
2023/03/30 09:13:33;;;;;;;8.38;2.85;;;;;;;8.59;56.32;94758.94;5015758;28;20119;-64
2023/03/30 09:16:18;;;;;;;8.80;2.75;;;;;;;9.21;55.11;94754.09;4975062;28;20383;-65
2023/03/30 09:18:44;;;;;;;10.85;3.92;;;;;;;9.40;54.63;94757.09;5015931;28;20025;-65
2023/03/30 09:21:10;;;;;;;7.13;2.65;;;;;;;9.67;53.77;94759.97;5013695;28;20045;-65
2023/03/30 09:23:36;;;;;;;6.40;2.50;;;;;;;8.97;55.83;94756.09;4999133;28;20572;-65
2023/03/30 09:26:15;;;;;;;4.43;2.50;;;;;;;9.16;54.31;94753.84;4997076;28;20032;-66
2023/03/30 09:29:18;;;;;;;9.80;3.20;;;;;;;8.55;56.78;94767.28;4997784;28;20259;-65
2023/03/30 09:32:04;;;;;;;7.43;2.78;;;;;;;7.83;57.60;94764.31;5005203;28;20631;-65
2023/03/30 09:34:35;;;;;;;8.73;2.60;;;;;;;8.60;55.43;94755.28;5010104;28;20041;-65
2023/03/30 09:37:12;;;;;;;8.15;3.90;;;;;;;8.37;56.08;94753.59;5012827;28;20461;-66
2023/03/30 09:39:37;;;;;;;7.70;2.50;;;;;;;9.04;54.13;94743.72;5017051;28;20467;-66
2023/03/30 09:42:26;;;;;;;10.77;3.70;;;;;;;7.84;57.74;94728.00;5016595;28;20029;-65
2023/03/30 09:44:52;;;;;;;4.25;2.50;;;;;;;8.03;56.34;94719.50;5012702;28;20654;-65
2023/03/30 09:47:27;;;;;;;9.07;3.70;;;;;;;8.76;53.54;94723.22;5013605;28;20034;-65
2023/03/30 09:49:57;;;;;;;8.65;3.13;;;;;;;9.23;52.41;94722.03;5014480;28;20041;-78
2023/03/30 09:52:24;;;;;;;6.10;2.53;;;;;;;9.75;51.13;94719.16;4999184;28;20063;-79
2023/03/30 09:54:49;;;;;;;8.40;3.80;;;;;;;10.05;49.52;94730.41;5015526;28;20044;-78
2023/03/30 09:57:29;;;;;;;6.43;2.45;;;;;;;9.84;51.17;94737.41;4998826;28;20663;-79
2023/03/30 09:59:55;;;;;;;9.70;2.67;;;;;;;9.28;51.73;94752.31;5013892;28;20045;-79
2023/03/30 10:02:21;;;;;;;6.10;2.90;;;;;;;8.99;52.62;94738.16;4999253;28;20482;-78
2023/03/30 10:04:53;;;;;;;16.23;9.27;;;;;;;10.05;50.68;94722.41;5013649;28;20641;-78
2023/03/30 10:07:21;;;;;;;9.02;3.92;;;;;;;10.26;49.29;94736.63;5014715;28;20036;-78
2023/03/30 10:09:47;;;;;;;10.43;4.25;;;;;;;9.70;51.25;94720.53;4998175;28;20136;-78
2023/03/30 10:12:13;;;;;;;5.07;2.10;;;;;;;10.52;47.49;94726.28;4998657;28;20056;-77
2023/03/30 10:14:39;;;;;;;7.20;2.40;;;;;;;10.14;49.16;94727.56;5002556;28;20033;-82
2023/03/30 10:17:05;;;;;;;7.03;1.95;;;;;;;10.06;48.12;94758.63;5004848;28;20041;-82
2023/03/30 10:19:32;;;;;;;6.18;2.20;;;;;;;9.08;49.44;94739.69;5003840;28;20033;-84
2023/03/30 10:21:58;;;;;;;3.80;1.60;;;;;;;9.10;50.71;94746.63;5021922;28;20065;-81
2023/03/30 10:24:28;;;;;;;7.78;2.08;;;;;;;9.36;50.75;94751.38;5004683;28;20505;-82
2023/03/30 10:26:58;;;;;;;7.75;2.38;;;;;;;10.52;48.82;94745.75;5031197;28;20576;-83
2023/03/30 10:29:25;;;;;;;3.42;1.60;;;;;;;10.54;48.51;94756.19;5007930;28;20034;-80
2023/03/30 10:32:00;;;;;;;6.25;2.33;;;;;;;9.18;50.57;94730.59;4998944;28;21038;-80
2023/03/30 10:34:46;;;;;;;5.60;2.03;;;;;;;9.67;49.42;94723.59;5002371;28;20505;-79
2023/03/30 10:37:15;;;;;;;6.93;2.65;;;;;;;10.05;49.20;94711.78;4986152;28;20034;-80
2023/03/30 10:39:42;;;;;;;7.80;2.13;;;;;;;8.66;50.17;94763.31;5003154;28;20079;-80
2023/03/30 10:42:07;;;;;;;5.15;2.13;;;;;;;8.84;50.21;94724.09;5003073;28;20126;-80
2023/03/30 10:44:42;;;;;;;5.72;2.17;;;;;;;10.26;49.20;94730.50;5019043;28;20685;-79
2023/03/30 10:47:12;;;;;;;6.88;1.77;;;;;;;9.68;49.32;94703.97;5003080;28;20238;-79
2023/03/30 10:49:41;;;;;;;6.63;1.63;;;;;;;9.65;48.18;94722.97;5018747;28;20068;-78
2023/03/30 10:52:22;;;;;;;5.10;2.10;;;;;;;9.65;48.54;94692.94;5002155;28;20042;-80
2023/03/30 10:55:17;;;;;;;3.40;1.42;;;;;;;8.66;48.91;94717.38;5001907;28;20056;-81
2023/03/30 10:57:58;;;;;;;3.08;1.40;;;;;;;6.89;57.10;94827.06;5018059;28;20037;-79
2023/03/30 11:00:55;;;;;;;7.10;1.58;;;;;;;3.91;69.51;94861.88;5020147;28;20103;-72
2023/03/30 11:03:24;;;;;;;1.98;0.85;;;;;;;2.64;72.52;94890.78;5034472;28;20177;-72
2023/03/30 11:05:51;;;;;;;4.43;1.20;;;;;;;2.03;74.93;94885.88;5002154;28;21702;-73
2023/03/30 11:08:27;;;;;;;2.28;0.75;;;;;;;1.59;77.68;94889.84;5001165;28;20287;-73
2023/03/30 11:10:53;;;;;;;1.95;0.70;;;;;;;1.32;79.24;94891.34;5002847;28;20060;-72
2023/03/30 11:13:20;;;;;;;0.68;0.68;;;;;;;1.62;79.65;94900.06;5001955;28;20165;-73
2023/03/30 11:15:52;;;;;;;2.92;0.85;;;;;;;1.81;79.55;94881.81;5017893;28;20449;-73
2023/03/30 11:18:24;;;;;;;1.73;1.05;;;;;;;2.14;78.60;94901.47;5018185;28;20090;-74
2023/03/30 11:20:52;;;;;;;1.63;0.90;;;;;;;2.08;79.72;94888.91;5018490;28;20079;-73
2023/03/30 11:23:29;;;;;;;1.85;0.73;;;;;;;3.10;76.56;94880.25;5019081;28;20153;-74
2023/03/30 11:25:59;;;;;;;2.13;0.90;;;;;;;2.63;78.07;94887.31;5017750;28;20170;-74
2023/03/30 11:28:27;;;;;;;1.95;0.60;;;;;;;2.99;76.57;94876.03;5001266;28;20163;-74
2023/03/30 11:30:54;;;;;;;3.15;1.25;;;;;;;2.86;77.15;94879.03;5019442;28;20051;-73
2023/03/30 11:33:32;;;;;;;0.82;0.65;;;;;;;2.66;77.97;94880.94;5019224;28;20078;-75
2023/03/30 11:36:16;;;;;;;1.73;0.90;;;;;;;1.93;79.00;94912.16;5018072;28;20099;-74
2023/03/30 11:38:49;;;;;;;4.60;0.57;;;;;;;1.69;80.29;94900.31;5018994;28;20099;-74
2023/03/30 11:41:31;;;;;;;2.90;0.95;;;;;;;1.91;79.58;94898.38;5014439;28;20123;-73
2023/03/30 11:43:56;;;;;;;1.13;0.52;;;;;;;2.16;79.00;94896.09;5003337;28;20037;-72
2023/03/30 11:46:51;;;;;;;2.88;0.68;;;;;;;2.04;80.07;94886.72;5017318;28;20025;-72
2023/03/30 11:49:35;;;;;;;0.82;0.75;;;;;;;2.33;79.13;94880.53;5016528;28;20559;-73